createdAt,value
2023-04-25T00:00:34.800Z,31.22
2023-04-25T00:01:34.769Z,31.22
2023-04-25T00:02:34.908Z,31.22
2023-04-25T00:03:34.932Z,31.21
2023-04-25T00:04:35.079Z,31.20
2023-04-25T00:05:34.754Z,31.19
2023-04-25T00:06:34.706Z,31.21
2023-04-25T00:07:34.696Z,31.20
2023-04-25T00:08:34.678Z,31.19
2023-04-25T00:09:34.680Z,31.21
2023-04-25T00:10:34.674Z,31.20
2023-04-25T00:11:34.645Z,31.21
2023-04-25T00:12:34.642Z,31.21
2023-04-25T00:13:34.644Z,31.19
2023-04-25T00:14:34.618Z,31.21
2023-04-25T00:15:34.605Z,31.20
2023-04-25T00:16:34.701Z,31.18
2023-04-25T00:17:34.603Z,31.20
2023-04-25T00:18:34.564Z,31.19
2023-04-25T00:19:34.566Z,31.18
2023-04-25T00:20:34.553Z,31.19
2023-04-25T00:21:34.528Z,31.17
2023-04-25T00:22:34.511Z,31.17
2023-04-25T00:23:34.493Z,31.17
2023-04-25T00:24:34.490Z,31.19
2023-04-25T00:25:34.473Z,31.16
2023-04-25T00:26:34.463Z,31.19
2023-04-25T00:27:34.444Z,31.19
2023-04-25T00:28:34.423Z,31.18
2023-04-25T00:29:34.445Z,31.17
2023-04-25T00:30:34.412Z,31.18
2023-04-25T00:31:34.446Z,31.14
2023-04-25T00:32:34.445Z,31.17
2023-04-25T00:33:34.425Z,31.16
2023-04-25T00:34:34.400Z,31.17
2023-04-25T00:35:34.344Z,31.17
2023-04-25T00:36:34.339Z,31.17
2023-04-25T00:37:34.407Z,31.17
2023-04-25T00:38:34.275Z,31.17
2023-04-25T00:39:34.262Z,31.15
2023-04-25T00:40:34.245Z,31.15
2023-04-25T00:41:34.257Z,31.17
2023-04-25T00:42:34.209Z,31.16
2023-04-25T00:43:34.266Z,31.16
2023-04-25T00:44:34.184Z,31.17
2023-04-25T00:45:34.161Z,31.20
2023-04-25T00:46:34.179Z,31.19
2023-04-25T00:47:34.163Z,31.17
2023-04-25T00:48:34.127Z,31.16
2023-04-25T00:49:34.126Z,31.15
2023-04-25T00:50:34.101Z,31.13
2023-04-25T00:51:34.073Z,31.15
2023-04-25T00:52:34.058Z,31.16
2023-04-25T00:53:34.033Z,31.16
2023-04-25T00:54:34.037Z,31.16
2023-04-25T00:55:34.009Z,31.14
2023-04-25T00:56:33.998Z,31.14
2023-04-25T00:57:33.977Z,31.12
2023-04-25T00:58:33.942Z,31.14
2023-04-25T00:59:33.944Z,31.14
2023-04-25T01:00:33.971Z,31.14
2023-04-25T01:01:33.910Z,31.14
2023-04-25T01:02:33.963Z,31.16
2023-04-25T01:03:34.021Z,31.16
2023-04-25T01:04:33.900Z,31.13
2023-04-25T01:05:33.826Z,31.14
2023-04-25T01:06:33.821Z,31.13
2023-04-25T01:07:33.782Z,31.14
2023-04-25T01:08:33.767Z,31.11
2023-04-25T01:09:33.750Z,31.13
2023-04-25T01:10:33.730Z,31.11
2023-04-25T01:11:33.722Z,31.11
2023-04-25T01:12:33.690Z,31.14
2023-04-25T01:13:33.679Z,31.12
2023-04-25T01:14:33.657Z,31.13
2023-04-25T01:15:33.648Z,31.11
2023-04-25T01:16:33.672Z,31.12
2023-04-25T01:17:33.650Z,31.12
2023-04-25T01:18:33.596Z,31.11
2023-04-25T01:19:33.573Z,31.12
2023-04-25T01:20:33.545Z,31.12
2023-04-25T01:21:33.533Z,31.12
2023-04-25T01:22:33.510Z,31.11
2023-04-25T01:23:33.502Z,31.11
2023-04-25T01:24:33.469Z,31.11
2023-04-25T01:25:33.453Z,31.11
2023-04-25T01:26:33.435Z,31.13
2023-04-25T01:27:33.412Z,31.12
2023-04-25T01:28:33.437Z,31.10
2023-04-25T01:29:33.373Z,31.10
2023-04-25T01:30:33.367Z,31.12
2023-04-25T01:31:33.378Z,31.11
2023-04-25T01:32:33.339Z,31.10
2023-04-25T01:33:33.310Z,31.10
2023-04-25T01:34:33.282Z,31.09
2023-04-25T01:35:33.253Z,31.10
2023-04-25T01:36:33.250Z,31.11
2023-04-25T01:37:33.224Z,31.11
2023-04-25T01:38:33.213Z,31.11
2023-04-25T01:39:33.208Z,31.08
2023-04-25T01:40:33.186Z,31.09
2023-04-25T01:41:33.156Z,31.10
2023-04-25T01:42:33.144Z,31.10
2023-04-25T01:43:33.119Z,31.10
2023-04-25T01:44:33.093Z,31.09
2023-04-25T01:45:33.090Z,31.08
2023-04-25T01:46:33.208Z,31.10
2023-04-25T01:47:33.247Z,31.10
2023-04-25T01:48:33.032Z,31.10
2023-04-25T01:49:33.018Z,31.09
2023-04-25T01:50:32.993Z,31.10
2023-04-25T01:51:33.003Z,31.08
2023-04-25T01:52:32.986Z,31.08
2023-04-25T01:53:32.949Z,31.07
2023-04-25T01:54:32.929Z,31.08
2023-04-25T01:55:32.907Z,31.08
2023-04-25T01:56:32.884Z,31.08
2023-04-25T01:57:32.871Z,31.07
2023-04-25T01:58:32.871Z,31.08
2023-04-25T01:59:32.849Z,31.06
2023-04-25T02:00:32.839Z,31.07
2023-04-25T02:01:32.882Z,31.10
2023-04-25T02:02:32.946Z,31.07
2023-04-25T02:03:32.960Z,31.05
2023-04-25T02:04:33.037Z,31.06
2023-04-25T02:05:32.857Z,31.08
2023-04-25T02:06:32.856Z,31.07
2023-04-25T02:07:32.984Z,31.08
2023-04-25T02:08:32.854Z,31.07
2023-04-25T02:09:32.857Z,31.06
2023-04-25T02:10:32.861Z,31.07
2023-04-25T02:11:32.859Z,31.05
2023-04-25T02:12:32.864Z,31.05
2023-04-25T02:13:32.849Z,31.06
2023-04-25T02:14:32.882Z,31.06
2023-04-25T02:15:32.882Z,31.05
2023-04-25T02:16:32.952Z,31.06
2023-04-25T02:17:32.860Z,31.05
2023-04-25T02:18:32.870Z,31.09
2023-04-25T02:19:32.873Z,31.05
2023-04-25T02:20:32.875Z,31.04
2023-04-25T02:21:32.880Z,31.04
2023-04-25T02:22:32.874Z,31.05
2023-04-25T02:23:32.874Z,31.07
2023-04-25T02:24:32.879Z,31.06
2023-04-25T02:25:32.903Z,31.05
2023-04-25T02:26:32.895Z,31.04
2023-04-25T02:27:32.897Z,31.04
2023-04-25T02:28:32.884Z,31.03
2023-04-25T02:29:32.889Z,31.03
2023-04-25T02:30:32.889Z,31.01
2023-04-25T02:31:32.922Z,31.02
2023-04-25T02:32:32.902Z,31.03
2023-04-25T02:33:32.907Z,31.01
2023-04-25T02:34:32.888Z,31.01
2023-04-25T02:35:32.896Z,31.02
2023-04-25T02:36:32.919Z,31.03
2023-04-25T02:37:32.894Z,31.01
2023-04-25T02:38:32.856Z,31.01
2023-04-25T02:39:32.831Z,31.03
2023-04-25T02:40:32.813Z,31.03
2023-04-25T02:41:32.796Z,31.02
2023-04-25T02:42:32.769Z,31.03
2023-04-25T02:43:32.736Z,31.01
2023-04-25T02:44:32.721Z,31.01
2023-04-25T02:45:32.715Z,31.01
2023-04-25T02:47:33.800Z,31.03
2023-04-25T02:48:32.619Z,31.00
2023-04-25T02:49:32.592Z,30.98
2023-04-25T02:50:32.569Z,30.99
2023-04-25T02:51:32.546Z,30.99
2023-04-25T02:52:32.507Z,31.01
2023-04-25T02:53:32.558Z,30.98
2023-04-25T02:54:32.484Z,31.00
2023-04-25T02:55:32.446Z,30.99
2023-04-25T02:56:32.430Z,31.00
2023-04-25T02:57:32.386Z,30.98
2023-04-25T02:58:32.354Z,31.00
2023-04-25T02:59:32.342Z,31.01
2023-04-25T03:00:32.331Z,30.99
2023-04-25T03:01:32.288Z,30.99
2023-04-25T03:02:32.375Z,30.99
2023-04-25T03:03:32.273Z,30.99
2023-04-25T03:04:32.232Z,30.98
2023-04-25T03:05:32.172Z,30.99
2023-04-25T03:06:32.154Z,30.96
2023-04-25T03:07:32.168Z,30.97
2023-04-25T03:08:32.152Z,30.98
2023-04-25T03:09:32.163Z,30.98
2023-04-25T03:10:32.150Z,30.98
2023-04-25T03:11:32.190Z,30.97
2023-04-25T03:12:32.169Z,30.99
2023-04-25T03:13:32.171Z,30.97
2023-04-25T03:14:32.189Z,30.97
2023-04-25T03:15:32.212Z,30.96
2023-04-25T03:16:32.290Z,30.96
2023-04-25T03:17:32.221Z,30.96
2023-04-25T03:18:32.217Z,30.96
2023-04-25T03:19:32.213Z,30.96
2023-04-25T03:20:32.203Z,30.95
2023-04-25T03:21:32.218Z,30.96
2023-04-25T03:22:32.218Z,30.96
2023-04-25T03:23:32.217Z,30.96
2023-04-25T03:24:32.216Z,30.97
2023-04-25T03:25:32.225Z,30.95
2023-04-25T03:26:32.235Z,30.95
2023-04-25T03:27:32.234Z,30.96
2023-04-25T03:28:32.299Z,30.96
2023-04-25T03:29:32.239Z,30.93
2023-04-25T03:30:32.245Z,30.94
2023-04-25T03:31:32.411Z,30.94
2023-04-25T03:32:32.317Z,30.92
2023-04-25T03:33:32.277Z,30.94
2023-04-25T03:34:32.278Z,30.94
2023-04-25T03:35:32.272Z,30.93
2023-04-25T03:36:32.313Z,30.94
2023-04-25T03:37:32.293Z,30.94
2023-04-25T03:38:32.281Z,30.93
2023-04-25T03:39:32.265Z,30.93
2023-04-25T03:40:32.265Z,30.94
2023-04-25T03:41:32.234Z,30.93
2023-04-25T03:42:32.183Z,30.94
2023-04-25T03:43:32.164Z,30.92
2023-04-25T03:44:32.118Z,30.91
2023-04-25T03:45:32.187Z,30.93
2023-04-25T03:46:32.102Z,30.92
2023-04-25T03:47:32.086Z,30.93
2023-04-25T03:48:32.027Z,30.91
2023-04-25T03:49:31.992Z,30.91
2023-04-25T03:50:31.979Z,30.91
2023-04-25T03:51:31.970Z,30.92
2023-04-25T03:52:31.931Z,30.90
2023-04-25T03:53:31.975Z,30.92
2023-04-25T03:54:31.897Z,30.93
2023-04-25T03:55:31.861Z,30.93
2023-04-25T03:56:31.855Z,30.92
2023-04-25T03:57:31.848Z,30.91
2023-04-25T03:58:31.852Z,30.94
2023-04-25T03:59:31.871Z,30.91
2023-04-25T04:00:31.873Z,30.91
2023-04-25T04:01:31.893Z,30.92
2023-04-25T04:02:31.990Z,30.91
2023-04-25T04:03:32.019Z,30.89
2023-04-25T04:04:32.137Z,30.89
2023-04-25T04:05:31.957Z,30.90
2023-04-25T04:06:31.917Z,30.90
2023-04-25T04:07:31.916Z,30.90
2023-04-25T04:08:31.940Z,30.90
2023-04-25T04:09:31.918Z,30.88
2023-04-25T04:10:31.916Z,30.88
2023-04-25T04:11:31.938Z,30.90
2023-04-25T04:12:31.945Z,30.92
2023-04-25T04:13:31.940Z,30.87
2023-04-25T04:14:31.962Z,30.89
2023-04-25T04:15:31.952Z,30.88
2023-04-25T04:16:33.956Z,30.89
2023-04-25T04:17:32.135Z,30.88
2023-04-25T04:18:32.103Z,30.87
2023-04-25T04:19:32.110Z,30.92
2023-04-25T04:20:32.108Z,30.86
2023-04-25T04:21:32.113Z,30.88
2023-04-25T04:22:32.128Z,30.88
2023-04-25T04:23:32.119Z,30.89
2023-04-25T04:24:32.128Z,30.88
2023-04-25T04:25:32.136Z,30.89
2023-04-25T04:26:32.106Z,30.88
2023-04-25T04:27:32.089Z,30.88
2023-04-25T04:28:32.098Z,30.87
2023-04-25T04:29:32.054Z,30.88
2023-04-25T04:30:32.102Z,30.86
2023-04-25T04:31:32.072Z,30.88
2023-04-25T04:32:32.016Z,30.88
2023-04-25T04:33:32.007Z,30.89
2023-04-25T04:34:31.967Z,30.86
2023-04-25T04:35:31.928Z,30.88
2023-04-25T04:36:31.937Z,30.86
2023-04-25T04:37:31.899Z,30.87
2023-04-25T04:38:31.883Z,30.89
2023-04-25T04:39:31.856Z,30.85
2023-04-25T04:40:31.835Z,30.87
2023-04-25T04:41:31.843Z,30.86
2023-04-25T04:42:31.829Z,30.86
2023-04-25T04:43:31.791Z,30.85
2023-04-25T04:44:31.770Z,30.88
2023-04-25T04:45:31.730Z,30.86
2023-04-25T04:46:31.775Z,30.86
2023-04-25T04:47:31.726Z,30.85
2023-04-25T04:48:31.677Z,30.86
2023-04-25T04:49:31.658Z,30.84
2023-04-25T04:50:31.644Z,30.85
2023-04-25T04:51:31.640Z,30.84
2023-04-25T04:52:31.606Z,30.84
2023-04-25T04:53:31.587Z,30.86
2023-04-25T04:54:31.571Z,30.85
2023-04-25T04:55:31.586Z,30.85
2023-04-25T04:56:31.563Z,30.84
2023-04-25T04:57:31.525Z,30.85
2023-04-25T04:58:31.511Z,30.85
2023-04-25T04:59:31.499Z,30.84
2023-04-25T05:00:31.545Z,30.85
2023-04-25T05:01:31.462Z,30.85
2023-04-25T05:02:31.575Z,30.83
2023-04-25T05:03:31.685Z,30.87
2023-04-25T05:04:31.545Z,30.85
2023-04-25T05:05:31.400Z,30.83
2023-04-25T05:06:31.389Z,30.84
2023-04-25T05:07:31.350Z,30.82
2023-04-25T05:08:31.317Z,30.84
2023-04-25T05:09:31.307Z,30.85
2023-04-25T05:10:31.291Z,30.84
2023-04-25T05:11:31.267Z,30.82
2023-04-25T05:12:31.258Z,30.84
2023-04-25T05:13:31.237Z,30.82
2023-04-25T05:14:31.243Z,30.84
2023-04-25T05:15:31.219Z,30.85
2023-04-25T05:16:31.222Z,30.82
2023-04-25T05:17:31.220Z,30.82
2023-04-25T05:18:31.154Z,30.84
2023-04-25T05:19:31.136Z,30.82
2023-04-25T05:20:31.139Z,30.82
2023-04-25T05:21:31.114Z,30.82
2023-04-25T05:22:31.100Z,30.84
2023-04-25T05:23:32.596Z,30.82
2023-04-25T05:24:31.053Z,30.82
2023-04-25T05:25:31.066Z,30.82
2023-04-25T05:26:31.040Z,30.82
2023-04-25T05:27:31.027Z,30.83
2023-04-25T05:28:31.008Z,30.82
2023-04-25T05:29:30.995Z,30.83
2023-04-25T05:30:30.985Z,30.85
2023-04-25T05:31:31.012Z,31.08
2023-04-25T05:32:30.973Z,31.03
2023-04-25T05:33:30.944Z,31.03
2023-04-25T05:34:30.925Z,31.26
2023-04-25T05:35:30.944Z,31.27
2023-04-25T05:36:30.935Z,31.34
2023-04-25T05:37:30.953Z,31.45
2023-04-25T05:38:33.244Z,31.54
2023-04-25T05:39:30.837Z,31.69
2023-04-25T05:40:30.821Z,31.85
2023-04-25T05:41:30.794Z,31.88
2023-04-25T05:42:30.909Z,32.04
2023-04-25T05:43:30.770Z,32.25
2023-04-25T05:44:30.762Z,32.44
2023-04-25T05:45:30.720Z,32.59
2023-04-25T05:46:30.812Z,32.78
2023-04-25T05:47:30.722Z,33.04
2023-04-25T05:48:30.665Z,33.48
2023-04-25T05:49:30.710Z,33.68
2023-04-25T05:50:30.666Z,33.60
2023-04-25T05:51:30.609Z,33.45
2023-04-25T05:52:30.599Z,33.40
2023-04-25T05:53:30.570Z,33.32
2023-04-25T05:54:30.553Z,33.29
2023-04-25T05:55:30.548Z,33.24
2023-04-25T05:56:30.600Z,33.19
2023-04-25T05:57:30.496Z,33.15
2023-04-25T05:58:30.479Z,33.16
2023-04-25T05:59:30.461Z,33.07
2023-04-25T06:00:30.498Z,33.08
2023-04-25T06:01:30.435Z,33.07
2023-04-25T06:02:30.504Z,33.03
2023-04-25T06:03:30.496Z,33.00
2023-04-25T06:04:30.638Z,32.99
2023-04-25T06:05:30.470Z,32.99
2023-04-25T06:06:30.322Z,32.94
2023-04-25T06:07:30.321Z,32.96
2023-04-25T06:08:30.294Z,32.94
2023-04-25T06:09:30.252Z,32.90
2023-04-25T06:10:30.317Z,32.89
2023-04-25T06:11:30.909Z,32.88
2023-04-25T06:12:30.392Z,32.86
2023-04-25T06:13:30.213Z,32.82
2023-04-25T06:14:30.165Z,32.79
2023-04-25T06:15:30.127Z,32.75
2023-04-25T06:16:30.243Z,32.69
2023-04-25T06:17:30.088Z,32.69
2023-04-25T06:18:30.064Z,32.67
2023-04-25T06:19:30.077Z,32.65
2023-04-25T06:20:30.055Z,32.62
2023-04-25T06:21:29.967Z,32.60
2023-04-25T06:22:29.963Z,32.57
2023-04-25T06:23:30.063Z,32.51
2023-04-25T06:24:29.934Z,32.50
2023-04-25T06:25:30.400Z,32.49
2023-04-25T06:26:29.871Z,32.47
2023-04-25T06:27:29.834Z,32.45
2023-04-25T06:28:29.877Z,32.43
2023-04-25T06:29:29.819Z,32.45
2023-04-25T06:30:29.879Z,32.40
2023-04-25T06:31:29.920Z,32.41
2023-04-25T06:32:29.797Z,32.37
2023-04-25T06:33:29.714Z,32.33
2023-04-25T06:34:29.651Z,32.35
2023-04-25T06:35:29.657Z,32.36
2023-04-25T06:36:29.617Z,32.33
2023-04-25T06:37:29.652Z,32.31
2023-04-25T06:38:29.582Z,32.31
2023-04-25T06:39:29.552Z,32.27
2023-04-25T06:40:29.554Z,32.26
2023-04-25T06:41:29.568Z,32.27
2023-04-25T06:42:29.594Z,32.25
2023-04-25T06:43:29.561Z,32.60
2023-04-25T06:44:29.531Z,32.76
2023-04-25T06:45:29.571Z,32.81
2023-04-25T06:46:29.656Z,32.91
2023-04-25T06:47:29.662Z,33.10
2023-04-25T06:48:29.685Z,33.28
2023-04-25T06:49:29.766Z,33.37
2023-04-25T06:50:29.749Z,33.50
2023-04-25T06:51:29.812Z,33.67
2023-04-25T06:52:30.955Z,33.78
2023-04-25T06:53:29.746Z,33.95
2023-04-25T06:54:29.723Z,34.04
2023-04-25T06:55:29.811Z,34.23
2023-04-25T06:56:29.683Z,34.43
2023-04-25T06:57:29.647Z,34.45
2023-04-25T06:58:29.648Z,34.50
2023-04-25T06:59:29.621Z,34.72
2023-04-25T07:00:29.661Z,34.83
2023-04-25T07:01:29.929Z,34.88
2023-04-25T07:02:29.916Z,34.99
2023-04-25T07:03:30.052Z,35.05
2023-04-25T07:04:29.771Z,35.22
2023-04-25T07:05:29.582Z,35.34
2023-04-25T07:06:29.589Z,35.49
2023-04-25T07:07:29.524Z,35.64
2023-04-25T07:08:29.532Z,35.77
2023-04-25T07:09:29.478Z,35.78
2023-04-25T07:10:29.434Z,35.82
2023-04-25T07:11:29.438Z,35.74
2023-04-25T07:12:29.379Z,35.75
2023-04-25T07:13:29.368Z,35.74
2023-04-25T07:14:29.338Z,35.86
2023-04-25T07:15:29.325Z,35.99
2023-04-25T07:16:29.297Z,36.04
2023-04-25T07:17:29.298Z,36.05
2023-04-25T07:18:29.249Z,36.04
2023-04-25T07:19:29.215Z,36.06
2023-04-25T07:20:29.184Z,36.15
2023-04-25T07:21:29.234Z,36.14
2023-04-25T07:22:29.195Z,36.18
2023-04-25T07:23:29.189Z,36.29
2023-04-25T07:24:29.191Z,36.29
2023-04-25T07:25:29.284Z,36.38
2023-04-25T07:26:29.206Z,36.39
2023-04-25T07:27:29.225Z,36.47
2023-04-25T07:28:29.190Z,36.48
2023-04-25T07:29:29.200Z,36.49
2023-04-25T07:30:29.235Z,36.48
2023-04-25T07:31:29.252Z,36.51
2023-04-25T07:32:29.298Z,36.45
2023-04-25T07:33:29.232Z,36.41
2023-04-25T07:34:29.300Z,36.38
2023-04-25T07:35:29.273Z,36.47
2023-04-25T07:36:29.239Z,36.43
2023-04-25T07:37:29.265Z,36.92
2023-04-25T07:38:29.274Z,36.78
2023-04-25T07:39:29.191Z,36.75
2023-04-25T07:40:29.159Z,36.64
2023-04-25T07:41:29.141Z,36.59
2023-04-25T07:42:29.090Z,36.44
2023-04-25T07:43:29.147Z,36.11
2023-04-25T07:44:29.095Z,35.67
2023-04-25T07:45:29.023Z,35.56
2023-04-25T07:46:28.998Z,35.44
2023-04-25T07:47:28.979Z,35.26
2023-04-25T07:48:28.903Z,35.26
2023-04-25T07:49:28.856Z,35.25
2023-04-25T07:50:28.899Z,35.22
2023-04-25T07:51:28.751Z,35.20
2023-04-25T07:52:28.874Z,35.25
2023-04-25T07:53:28.749Z,35.15
2023-04-25T07:54:28.708Z,35.21
2023-04-25T07:55:28.680Z,35.13
2023-04-25T07:56:31.780Z,35.05
2023-04-25T07:57:29.574Z,35.03
2023-04-25T07:58:28.588Z,35.06
2023-04-25T07:59:30.208Z,34.97
2023-04-25T08:00:28.485Z,34.99
2023-04-25T08:01:28.524Z,35.03
2023-04-25T08:02:28.482Z,35.10
2023-04-25T08:03:28.608Z,35.03
2023-04-25T08:04:28.652Z,35.07
2023-04-25T08:05:28.390Z,35.05
2023-04-25T08:06:28.619Z,35.06
2023-04-25T08:07:28.282Z,35.02
2023-04-25T08:08:28.249Z,35.03
2023-04-25T08:09:28.221Z,34.99
2023-04-25T08:10:28.189Z,33.73
2023-04-25T08:11:28.142Z,34.61
2023-04-25T08:12:28.166Z,34.81
2023-04-25T08:13:28.152Z,34.82
2023-04-25T08:14:28.082Z,34.77
2023-04-25T08:15:28.045Z,34.85
2023-04-25T08:16:28.181Z,34.76
2023-04-25T08:17:27.973Z,34.77
2023-04-25T08:18:28.072Z,34.84
2023-04-25T08:19:27.937Z,34.84
2023-04-25T08:20:27.947Z,34.78
2023-04-25T08:21:27.895Z,34.91
2023-04-25T08:22:27.841Z,34.88
2023-04-25T08:23:27.813Z,34.85
2023-04-25T08:24:27.778Z,34.89
2023-04-25T08:25:27.857Z,34.84
2023-04-25T08:26:27.771Z,34.87
2023-04-25T08:27:27.716Z,34.88
2023-04-25T08:28:27.765Z,34.78
2023-04-25T08:29:27.692Z,34.84
2023-04-25T08:30:27.695Z,34.89
2023-04-25T08:31:27.663Z,35.03
2023-04-25T08:32:29.072Z,35.04
2023-04-25T08:33:27.638Z,34.81
2023-04-25T08:34:27.558Z,34.58
2023-04-25T08:35:27.589Z,33.71
2023-04-25T08:36:38.521Z,30.08
2023-04-25T08:37:28.473Z,29.99
2023-04-25T08:38:27.437Z,29.47
2023-04-25T08:39:27.456Z,28.74
2023-04-25T08:40:27.397Z,28.85
2023-04-25T08:41:27.363Z,28.16
2023-04-25T08:42:27.364Z,28.98
2023-04-25T08:43:27.433Z,28.25
2023-04-25T08:44:27.340Z,27.68
2023-04-25T08:45:27.297Z,28.16
2023-04-25T08:46:27.282Z,28.46
2023-04-25T08:47:27.266Z,29.11
2023-04-25T08:48:27.244Z,29.40
2023-04-25T08:49:27.275Z,29.64
2023-04-25T08:50:27.359Z,30.18
2023-04-25T08:51:27.237Z,30.73
2023-04-25T08:52:27.253Z,30.69
2023-04-25T08:53:28.253Z,30.86
2023-04-25T08:54:34.236Z,30.69
2023-04-25T08:55:28.406Z,31.13
2023-04-25T08:56:28.443Z,31.32
2023-04-25T08:57:27.180Z,31.38
2023-04-25T08:58:27.118Z,31.42
2023-04-25T08:59:27.101Z,31.67
2023-04-25T09:00:27.045Z,31.84
2023-04-25T09:01:27.101Z,31.99
2023-04-25T09:02:27.074Z,32.21
2023-04-25T09:03:27.171Z,32.28
2023-04-25T09:04:27.095Z,32.36
2023-04-25T09:05:27.088Z,32.45
2023-04-25T09:06:26.898Z,32.66
2023-04-25T09:07:26.881Z,32.57
2023-04-25T09:08:26.825Z,32.98
2023-04-25T09:09:26.823Z,32.95
2023-04-25T09:10:26.742Z,32.89
2023-04-25T09:11:26.715Z,32.83
2023-04-25T09:12:26.691Z,33.12
2023-04-25T09:13:26.611Z,33.15
2023-04-25T09:14:26.595Z,33.34
2023-04-25T09:15:26.554Z,33.29
2023-04-25T09:16:26.592Z,33.26
2023-04-25T09:17:26.542Z,33.40
2023-04-25T09:18:30.041Z,33.48
2023-04-25T09:19:38.896Z,33.56
2023-04-25T09:20:27.384Z,33.58
2023-04-25T09:21:26.359Z,33.70
2023-04-25T09:22:26.333Z,33.77
2023-04-25T09:23:26.293Z,33.77
2023-04-25T09:24:26.259Z,33.81
2023-04-25T09:25:26.245Z,33.94
2023-04-25T09:26:26.190Z,33.90
2023-04-25T09:27:26.358Z,33.91
2023-04-25T09:28:28.294Z,34.06
2023-04-25T09:29:26.239Z,34.05
2023-04-25T09:30:26.270Z,34.22
2023-04-25T09:31:26.262Z,34.22
2023-04-25T09:32:26.313Z,34.24
2023-04-25T09:33:26.080Z,34.29
2023-04-25T09:34:26.068Z,34.38
2023-04-25T09:35:26.059Z,34.48
2023-04-25T09:36:25.977Z,34.55
2023-04-25T09:37:25.983Z,34.61
2023-04-25T09:38:25.982Z,34.63
2023-04-25T09:39:25.951Z,34.74
2023-04-25T09:40:25.838Z,34.84
2023-04-25T09:41:25.807Z,35.00
2023-04-25T09:42:25.771Z,35.12
2023-04-25T09:43:25.760Z,34.63
2023-04-25T09:44:25.774Z,34.14
2023-04-25T09:45:25.663Z,34.12
2023-04-25T09:46:25.696Z,33.80
2023-04-25T09:47:25.598Z,33.47
2023-04-25T09:48:25.551Z,32.79
2023-04-25T09:49:25.687Z,31.62
2023-04-25T09:50:25.483Z,31.57
2023-04-25T09:51:25.500Z,31.22
2023-04-25T09:52:26.423Z,31.26
2023-04-25T09:53:25.421Z,30.93
2023-04-25T09:54:25.418Z,31.42
2023-04-25T09:55:25.402Z,31.51
2023-04-25T09:56:25.487Z,31.35
2023-04-25T09:57:25.406Z,31.26
2023-04-25T09:58:25.414Z,31.15
2023-04-25T09:59:27.323Z,31.07
2023-04-25T10:00:25.497Z,30.93
2023-04-25T10:01:25.266Z,30.90
2023-04-25T10:02:25.208Z,30.76
2023-04-25T10:03:25.187Z,30.71
2023-04-25T10:04:25.459Z,30.34
2023-04-25T10:05:26.056Z,30.44
2023-04-25T10:06:25.049Z,30.45
2023-04-25T10:07:25.017Z,30.34
2023-04-25T10:08:25.240Z,30.22
2023-04-25T10:09:24.971Z,30.28
2023-04-25T10:10:24.929Z,30.22
2023-04-25T10:11:24.928Z,30.04
2023-04-25T10:12:24.876Z,30.04
2023-04-25T10:13:24.845Z,29.90
2023-04-25T10:14:24.949Z,30.05
2023-04-25T10:15:24.869Z,29.90
2023-04-25T10:16:24.978Z,30.05
2023-04-25T10:17:24.852Z,29.91
2023-04-25T10:18:24.919Z,29.95
2023-04-25T10:19:24.837Z,29.93
2023-04-25T10:20:24.734Z,29.87
2023-04-25T10:21:24.684Z,29.85
2023-04-25T10:22:24.661Z,29.47
2023-04-25T10:23:24.620Z,29.45
2023-04-25T10:24:24.614Z,29.12
2023-04-25T10:25:24.595Z,29.44
2023-04-25T10:26:24.551Z,29.39
2023-04-25T10:27:24.526Z,29.78
2023-04-25T10:28:24.545Z,29.39
2023-04-25T10:29:24.511Z,29.64
2023-04-25T10:30:24.475Z,29.60
2023-04-25T10:31:24.519Z,29.79
2023-04-25T10:32:24.445Z,29.79
2023-04-25T10:33:24.392Z,29.68
2023-04-25T10:34:24.360Z,29.64
2023-04-25T10:35:24.328Z,29.63
2023-04-25T10:36:24.365Z,29.64
2023-04-25T10:37:24.268Z,29.62
2023-04-25T10:38:24.243Z,29.62
2023-04-25T10:39:24.258Z,29.65
2023-04-25T10:40:24.189Z,29.70
2023-04-25T10:41:24.157Z,29.70
2023-04-25T10:42:24.234Z,29.75
2023-04-25T10:43:24.305Z,29.78
2023-04-25T10:44:24.170Z,29.77
2023-04-25T10:45:24.189Z,29.77
2023-04-25T10:46:24.283Z,29.80
2023-04-25T10:47:24.185Z,29.80
2023-04-25T10:48:24.137Z,29.81
2023-04-25T10:49:24.160Z,29.80
2023-04-25T10:50:24.091Z,29.80
2023-04-25T10:51:24.107Z,29.82
2023-04-25T10:52:24.047Z,29.81
2023-04-25T10:53:24.015Z,29.84
2023-04-25T10:54:24.012Z,29.84
2023-04-25T10:55:24.074Z,29.86
2023-04-25T10:56:23.959Z,29.88
2023-04-25T10:57:23.917Z,29.87
2023-04-25T10:58:23.899Z,29.88
2023-04-25T10:59:23.885Z,29.88
2023-04-25T11:00:25.753Z,29.87
2023-04-25T11:01:23.926Z,29.86
2023-04-25T11:02:23.920Z,29.87
2023-04-25T11:03:23.964Z,29.85
2023-04-25T11:04:24.114Z,29.87
2023-04-25T11:05:23.787Z,29.85
2023-04-25T11:06:23.721Z,29.84
2023-04-25T11:07:23.696Z,29.82
2023-04-25T11:08:23.814Z,29.84
2023-04-25T11:09:23.654Z,29.85
2023-04-25T11:10:23.641Z,29.83
2023-04-25T11:11:23.615Z,29.82
2023-04-25T11:12:23.607Z,29.79
2023-04-25T11:13:23.535Z,29.72
2023-04-25T11:14:23.563Z,29.75
2023-04-25T11:15:23.485Z,29.77
2023-04-25T11:16:28.264Z,29.76
2023-04-25T11:17:24.485Z,29.76
2023-04-25T11:18:23.499Z,29.69
2023-04-25T11:19:23.405Z,29.73
2023-04-25T11:20:23.374Z,29.70
2023-04-25T11:21:23.368Z,29.62
2023-04-25T11:22:23.338Z,29.66
2023-04-25T11:23:23.314Z,29.61
2023-04-25T11:24:23.308Z,29.60
2023-04-25T11:25:23.258Z,29.56
2023-04-25T11:26:23.249Z,29.51
2023-04-25T11:27:23.254Z,29.58
2023-04-25T11:28:23.680Z,29.64
2023-04-25T11:29:23.180Z,29.57
2023-04-25T11:30:23.165Z,29.57
2023-04-25T11:31:23.183Z,29.59
2023-04-25T11:32:23.785Z,29.64
2023-04-25T11:33:23.149Z,29.62
2023-04-25T11:34:23.050Z,29.58
2023-04-25T11:35:23.110Z,29.69
2023-04-25T11:36:22.990Z,29.63
2023-04-25T11:37:22.965Z,29.60
2023-04-25T11:38:24.777Z,29.64
2023-04-25T11:39:22.939Z,29.65
2023-04-25T11:40:22.924Z,29.55
2023-04-25T11:41:22.867Z,29.66
2023-04-25T11:42:22.870Z,29.61
2023-04-25T11:43:22.877Z,29.56
2023-04-25T11:44:22.804Z,29.56
2023-04-25T11:45:22.788Z,29.61
2023-04-25T11:46:22.862Z,29.53
2023-04-25T11:47:22.797Z,29.52
2023-04-25T11:48:25.957Z,29.46
2023-04-25T11:49:22.670Z,29.57
2023-04-25T11:50:22.733Z,29.57
2023-04-25T11:51:22.622Z,29.61
2023-04-25T11:52:22.634Z,29.56
2023-04-25T11:53:22.583Z,29.58
2023-04-25T11:54:22.577Z,29.56
2023-04-25T11:55:22.560Z,29.53
2023-04-25T11:56:22.509Z,29.57
2023-04-25T11:57:22.511Z,29.57
2023-04-25T11:58:22.486Z,29.58
2023-04-25T11:59:22.442Z,29.68
2023-04-25T12:00:22.447Z,29.68
2023-04-25T12:01:22.396Z,29.69
2023-04-25T12:02:22.473Z,29.70
2023-04-25T12:03:22.698Z,29.71
2023-04-25T12:04:22.739Z,29.68
2023-04-25T12:06:24.990Z,29.63
2023-04-25T12:07:22.254Z,29.67
2023-04-25T12:08:22.237Z,29.67
2023-04-25T12:09:22.241Z,29.69
2023-04-25T12:10:22.572Z,29.71
2023-04-25T12:11:22.177Z,29.73
2023-04-25T12:12:22.165Z,29.71
2023-04-25T12:13:22.164Z,29.69
2023-04-25T12:14:22.153Z,29.71
2023-04-25T12:15:22.110Z,29.66
2023-04-25T12:16:22.169Z,29.71
2023-04-25T12:17:22.061Z,29.73
2023-04-25T12:18:22.049Z,29.73
2023-04-25T12:19:22.010Z,29.74
2023-04-25T12:20:22.070Z,29.71
2023-04-25T12:21:21.970Z,29.84
2023-04-25T12:22:21.983Z,29.76
2023-04-25T12:23:21.949Z,29.76
2023-04-25T12:24:21.908Z,29.73
2023-04-25T12:25:21.909Z,29.74
2023-04-25T12:26:21.876Z,29.76
2023-04-25T12:27:21.877Z,29.73
2023-04-25T12:28:21.854Z,29.75
2023-04-25T12:29:21.852Z,29.74
2023-04-25T12:30:21.832Z,29.77
2023-04-25T12:31:21.860Z,29.71
2023-04-25T12:32:21.785Z,29.74
2023-04-25T12:33:21.748Z,29.71
2023-04-25T12:34:21.714Z,29.70
2023-04-25T12:35:21.693Z,29.76
2023-04-25T12:36:21.666Z,29.70
2023-04-25T12:37:21.635Z,29.67
2023-04-25T12:38:21.620Z,29.68
2023-04-25T12:39:21.619Z,29.65
2023-04-25T12:40:21.586Z,29.66
2023-04-25T12:41:21.577Z,29.64
2023-04-25T12:42:21.608Z,29.61
2023-04-25T12:43:21.507Z,29.57
2023-04-25T12:44:21.481Z,29.56
2023-04-25T12:45:21.482Z,29.52
2023-04-25T12:46:21.503Z,29.53
2023-04-25T12:47:21.477Z,29.56
2023-04-25T12:48:21.491Z,29.48
2023-04-25T12:49:21.497Z,29.52
2023-04-25T12:50:21.516Z,29.48
2023-04-25T12:51:21.529Z,29.54
2023-04-25T12:52:21.537Z,29.47
2023-04-25T12:53:21.604Z,29.51
2023-04-25T12:54:21.570Z,29.48